Sunny Clover — H3SY — position and weather

sailwx.info

Track history (hours):
 
Tides and Currents Weather Stations Pressure Air Temp Water Temp Dewpoint Dewpoint Depression Visibility Wind Speed Wind Dir Waves Ship Positions

Sunny Clover

Last reported at 2016-Feb-14 09:15 UTC. Time now 2016-Feb-14 23:06 UTC.
Position N 22°21' E 114°02'.

Length 137 m; draft 6.8 m.

Type: Cargo ship. MMSI: 374431000.

Date/timePositionNaut miles runAvg speedWind from/ knotsBaromVisibWave heightAir tempDewpointWater temp
2016-Feb-14 09:15N 22°21' E 114°02'1110.6
2016-Feb-14 08:14N 22°13' E 114°10'5 7.2
2016-Feb-14 07:33N 22°09' E 114°13'6 6.3
2016-Feb-14 06:33N 22°05' E 114°08'3 2.2
2016-Feb-14 05:17N 22°03' E 114°08'0 0.1
2016-Feb-14 04:08N 22°02' E 114°08'0 0.0
2016-Feb-14 03:33N 22°02' E 114°08'2 1.6
2016-Feb-14 02:05N 22°04' E 114°09'3 4.7
2016-Feb-14 01:25N 22°07' E 114°09'16 1.4
2016-Feb-13 14:11N 22°06' E 113°52'5 8.6
2016-Feb-13 13:33N 22°10' E 113°47'1110.5
2016-Feb-13 12:33N 22°20' E 113°48'2512.2
2016-Feb-13 10:32N 22°44' E 113°40'1111.0
2016-Feb-13 09:33N 22°53' E 113°34'10 9.7
2016-Feb-13 08:33N 23°02' E 113°31'1 0.6
2016-Feb-13 07:28N 23°03' E 113°31'0 0.0
2016-Feb-13 06:16N 23°03' E 113°31'0 0.0
2016-Feb-13 05:28N 23°03' E 113°31'0 0.0
2016-Feb-13 04:29N 23°03' E 113°31'0 0.0
2016-Feb-13 03:28N 23°03' E 113°31'0 0.0
2016-Feb-13 02:28N 23°03' E 113°31'0 0.0
2016-Feb-13 01:28N 23°03' E 113°31'0 0.0
2016-Feb-13 00:28N 23°03' E 113°31'0 0.0
2016-Feb-12 23:16N 23°03' E 113°31'0 0.0
2016-Feb-12 22:28N 23°03' E 113°31'0 0.0
2016-Feb-12 21:22N 23°03' E 113°31'0 0.0
2016-Feb-12 20:28N 23°03' E 113°31'0 0.0
2016-Feb-12 19:28N 23°03' E 113°31'0 0.0
2016-Feb-12 18:22N 23°03' E 113°31'0 0.0
2016-Feb-12 17:28N 23°03' E 113°31'0 0.0
2016-Feb-12 16:28N 23°03' E 113°31'0 0.0
2016-Feb-12 15:29N 23°03' E 113°31'0 0.0
2016-Feb-12 14:28N 23°03' E 113°31'0 0.0
2016-Feb-12 13:28N 23°03' E 113°31'0 0.0
2016-Feb-12 12:28N 23°03' E 113°31'0 0.0
2016-Feb-12 11:28N 23°03' E 113°31'0 0.0
2016-Feb-12 10:22N 23°03' E 113°31'0 0.0
2016-Feb-12 09:28N 23°03' E 113°31'0 0.0
2016-Feb-12 08:10N 23°03' E 113°31'0 0.0
2016-Feb-12 07:28N 23°03' E 113°31'5 5.9
2016-Feb-12 06:33N 22°58' E 113°33'10 9.7
2016-Feb-12 05:33N 22°48' E 113°36'2913.2
2016-Feb-12 03:21N 22°21' E 113°47'1114.4
2016-Feb-12 02:33N 22°10' E 113°47'19 5.7
2016-Feb-11 23:17N 22°16' E 114°06'4 5.7
2016-Feb-11 22:32N 22°20' E 114°07'0 0.0
2016-Feb-11 21:32N 22°20' E 114°07'0 0.0
2016-Feb-11 20:33N 22°20' E 114°07'0 0.0
2016-Feb-11 19:33N 22°20' E 114°07'0 0.0
2016-Feb-11 18:33N 22°20' E 114°07'0 0.0
2016-Feb-11 17:33N 22°20' E 114°07'0 0.0
2016-Feb-11 16:33N 22°20' E 114°07'0 0.0
2016-Feb-11 15:33N 22°20' E 114°07'0 0.0
2016-Feb-11 14:33N 22°20' E 114°07'8 7.7
2016-Feb-11 13:32N 22°13' E 114°10'9 8.8
2016-Feb-11 12:32N 22°08' E 114°18'1110.6
2016-Feb-11 11:29N 22°10' E 114°29'20315.1
2016-Feb-10 22:04N 23°33' E 117°51'816.6
2016-Feb-10 21:33N 23°38' E 117°58'1716.9
2016-Feb-10 20:33N 23°50' E 118°10'1716.9
2016-Feb-10 19:33N 24°03' E 118°23'1716.9
2016-Feb-10 18:33N 24°14' E 118°36'1816.7
2016-Feb-10 17:30N 24°25' E 118°52'1616.9
2016-Feb-10 16:32N 24°33' E 119°07'1616.8
2016-Feb-10 15:33N 24°40' E 119°24'1615.9
2016-Feb-10 14:33N 24°46' E 119°40'1615.8
2016-Feb-10 13:33N 24°52' E 119°56'1616.4
2016-Feb-10 12:33N 24°59' E 120°13'  
Track history (hours):
 
Tides and Currents Weather Stations Pressure Air Temp Water Temp Dewpoint Dewpoint Depression Visibility Wind Speed Wind Dir Waves Ship Positions

Sunny Clover

Last reported at 2016-Feb-14 09:15 UTC. Time now 2016-Feb-14 23:06 UTC.
Position N 22°21' E 114°02'.

Length 137 m; draft 6.8 m.

Type: Cargo ship. MMSI: 374431000.

Date/timePositionNaut miles runAvg speedWind from/ knotsBaromVisibWave heightAir tempDewpointWater temp
2016-Feb-14 09:15N 22°21' E 114°02'1110.6
2016-Feb-14 08:14N 22°13' E 114°10'5 7.2
2016-Feb-14 07:33N 22°09' E 114°13'6 6.3
2016-Feb-14 06:33N 22°05' E 114°08'3 2.2
2016-Feb-14 05:17N 22°03' E 114°08'0 0.1
2016-Feb-14 04:08N 22°02' E 114°08'0 0.0
2016-Feb-14 03:33N 22°02' E 114°08'2 1.6
2016-Feb-14 02:05N 22°04' E 114°09'3 4.7
2016-Feb-14 01:25N 22°07' E 114°09'16 1.4
2016-Feb-13 14:11N 22°06' E 113°52'5 8.6
2016-Feb-13 13:33N 22°10' E 113°47'1110.5
2016-Feb-13 12:33N 22°20' E 113°48'2512.2
2016-Feb-13 10:32N 22°44' E 113°40'1111.0
2016-Feb-13 09:33N 22°53' E 113°34'10 9.7
2016-Feb-13 08:33N 23°02' E 113°31'1 0.6
2016-Feb-13 07:28N 23°03' E 113°31'0 0.0
2016-Feb-13 06:16N 23°03' E 113°31'0 0.0
2016-Feb-13 05:28N 23°03' E 113°31'0 0.0
2016-Feb-13 04:29N 23°03' E 113°31'0 0.0
2016-Feb-13 03:28N 23°03' E 113°31'0 0.0
2016-Feb-13 02:28N 23°03' E 113°31'0 0.0
2016-Feb-13 01:28N 23°03' E 113°31'0 0.0
2016-Feb-13 00:28N 23°03' E 113°31'0 0.0
2016-Feb-12 23:16N 23°03' E 113°31'0 0.0
2016-Feb-12 22:28N 23°03' E 113°31'0 0.0
2016-Feb-12 21:22N 23°03' E 113°31'0 0.0
2016-Feb-12 20:28N 23°03' E 113°31'0 0.0
2016-Feb-12 19:28N 23°03' E 113°31'0 0.0
2016-Feb-12 18:22N 23°03' E 113°31'0 0.0
2016-Feb-12 17:28N 23°03' E 113°31'0 0.0
2016-Feb-12 16:28N 23°03' E 113°31'0 0.0
2016-Feb-12 15:29N 23°03' E 113°31'0 0.0
2016-Feb-12 14:28N 23°03' E 113°31'0 0.0
2016-Feb-12 13:28N 23°03' E 113°31'0 0.0
2016-Feb-12 12:28N 23°03' E 113°31'0 0.0
2016-Feb-12 11:28N 23°03' E 113°31'0 0.0
2016-Feb-12 10:22N 23°03' E 113°31'0 0.0
2016-Feb-12 09:28N 23°03' E 113°31'0 0.0
2016-Feb-12 08:10N 23°03' E 113°31'0 0.0
2016-Feb-12 07:28N 23°03' E 113°31'5 5.9
2016-Feb-12 06:33N 22°58' E 113°33'10 9.7
2016-Feb-12 05:33N 22°48' E 113°36'2913.2
2016-Feb-12 03:21N 22°21' E 113°47'1114.4
2016-Feb-12 02:33N 22°10' E 113°47'19 5.7
2016-Feb-11 23:17N 22°16' E 114°06'4 5.7
2016-Feb-11 22:32N 22°20' E 114°07'0 0.0
2016-Feb-11 21:32N 22°20' E 114°07'0 0.0
2016-Feb-11 20:33N 22°20' E 114°07'0 0.0
2016-Feb-11 19:33N 22°20' E 114°07'0 0.0
2016-Feb-11 18:33N 22°20' E 114°07'0 0.0
2016-Feb-11 17:33N 22°20' E 114°07'0 0.0
2016-Feb-11 16:33N 22°20' E 114°07'0 0.0
2016-Feb-11 15:33N 22°20' E 114°07'0 0.0
2016-Feb-11 14:33N 22°20' E 114°07'8 7.7
2016-Feb-11 13:32N 22°13' E 114°10'9 8.8
2016-Feb-11 12:32N 22°08' E 114°18'1110.6
2016-Feb-11 11:29N 22°10' E 114°29'20315.1
2016-Feb-10 22:04N 23°33' E 117°51'816.6
2016-Feb-10 21:33N 23°38' E 117°58'1716.9
2016-Feb-10 20:33N 23°50' E 118°10'1716.9
2016-Feb-10 19:33N 24°03' E 118°23'1716.9
2016-Feb-10 18:33N 24°14' E 118°36'1816.7
2016-Feb-10 17:30N 24°25' E 118°52'1616.9
2016-Feb-10 16:32N 24°33' E 119°07'1616.8
2016-Feb-10 15:33N 24°40' E 119°24'1615.9
2016-Feb-10 14:33N 24°46' E 119°40'1615.8
2016-Feb-10 13:33N 24°52' E 119°56'1616.4
2016-Feb-10 12:33N 24°59' E 120°13'  

Dump ship's entire track history